createdAt,value
2019-02-25T00:00:56.583Z,98919.83
2019-02-25T00:05:52.440Z,98917.22
2019-02-25T00:10:51.526Z,98917.66
2019-02-25T00:15:47.914Z,98907.77
2019-02-25T00:20:45.630Z,98902.10
2019-02-25T00:25:43.564Z,98911.84
2019-02-25T00:30:39.368Z,98917.88
2019-02-25T00:35:35.155Z,98910.97
2019-02-25T00:40:32.679Z,98901.43
2019-02-25T00:45:28.535Z,98903.91
2019-02-25T00:50:24.529Z,98892.77
2019-02-25T00:55:29.677Z,98895.48
2019-02-25T01:00:26.993Z,98875.70
2019-02-25T01:05:22.795Z,98876.69
2019-02-25T01:10:19.149Z,98874.50
2019-02-25T01:15:15.738Z,98876.58
2019-02-25T01:20:11.839Z,98868.36
2019-02-25T01:25:09.812Z,98863.65
2019-02-25T01:30:07.455Z,98868.41
2019-02-25T01:35:03.388Z,98847.64
2019-02-25T01:39:59.438Z,98850.00
2019-02-25T01:44:55.316Z,98847.38
2019-02-25T01:49:51.133Z,98847.28
2019-02-25T01:54:46.941Z,98840.59
2019-02-25T01:59:42.709Z,98832.31
2019-02-25T02:04:38.653Z,98831.14
2019-02-25T02:09:34.469Z,98835.42
2019-02-25T02:14:30.321Z,98825.94
2019-02-25T02:19:26.268Z,98821.74
2019-02-25T02:24:22.181Z,98813.10
2019-02-25T02:29:18.430Z,98808.79
2019-02-25T02:34:14.322Z,98810.13
2019-02-25T02:39:10.343Z,98805.88
2019-02-25T02:44:06.173Z,98817.84
2019-02-25T02:49:05.190Z,98815.72
2019-02-25T02:54:01.209Z,98818.27
2019-02-25T02:58:57.086Z,98812.30
2019-02-25T03:03:52.976Z,98822.22
2019-02-25T03:08:48.798Z,98820.49
2019-02-25T03:13:44.677Z,98819.21
2019-02-25T03:18:40.707Z,98823.93
2019-02-25T03:23:36.756Z,98825.19
2019-02-25T03:28:32.761Z,98830.39
2019-02-25T03:33:28.653Z,98840.70
2019-02-25T03:38:24.556Z,98846.71
2019-02-25T03:43:20.378Z,98833.82
2019-02-25T03:48:16.276Z,98840.70
2019-02-25T03:53:12.145Z,98835.55
2019-02-25T03:58:07.994Z,98834.66
2019-02-25T04:03:03.944Z,98838.12
2019-02-25T04:07:59.805Z,98848.86
2019-02-25T04:12:55.761Z,98854.45
2019-02-25T04:17:51.566Z,98858.31
2019-02-25T04:22:47.434Z,98856.59
2019-02-25T04:27:43.475Z,98848.45
2019-02-25T04:32:39.293Z,98860.02
2019-02-25T04:37:35.208Z,98858.74
2019-02-25T04:42:31.001Z,98852.29
2019-02-25T04:47:26.970Z,98858.30
2019-02-25T04:52:22.876Z,98858.31
2019-02-25T04:57:18.815Z,98857.89
2019-02-25T05:14:47.713Z,98853.59
2019-02-25T05:19:43.625Z,98851.00
2019-02-25T05:24:39.455Z,98851.44
2019-02-25T05:29:35.317Z,98847.57
2019-02-25T05:34:31.286Z,98851.01
2019-02-25T05:39:27.105Z,98849.28
2019-02-25T05:44:22.995Z,98846.28
2019-02-25T05:49:18.835Z,98852.30
2019-02-25T05:54:14.663Z,98857.84
2019-02-25T05:59:10.513Z,98859.14
2019-02-25T06:04:06.304Z,98869.03
2019-02-25T06:09:02.182Z,98870.30
2019-02-25T06:13:57.991Z,98867.30
2019-02-25T06:18:53.991Z,98870.77
2019-02-25T06:23:49.787Z,98869.92
2019-02-25T06:28:47.099Z,98887.94
2019-02-25T06:33:43.201Z,98883.64
2019-02-25T06:38:39.081Z,98885.36
2019-02-25T06:43:34.977Z,98884.52
2019-02-25T06:48:30.805Z,98887.52
2019-02-25T06:53:27.635Z,98888.37
2019-02-25T06:58:23.732Z,98885.79
2019-02-25T07:03:19.613Z,98890.09
2019-02-25T07:08:34.271Z,98901.24
2019-02-25T07:13:36.382Z,98908.55
2019-02-25T07:18:49.129Z,98899.09
2019-02-25T07:24:21.778Z,98908.09
2019-02-25T07:29:39.599Z,98913.64
2019-02-25T07:34:52.955Z,98913.61
2019-02-25T07:40:05.925Z,98914.80
2019-02-25T07:45:26.391Z,98922.45
2019-02-25T07:50:47.139Z,98912.02
2019-02-25T07:56:02.370Z,98923.88
2019-02-25T08:01:03.473Z,98923.14
2019-02-25T08:06:26.786Z,98916.13
2019-02-25T08:11:34.973Z,98915.74
2019-02-25T08:16:46.391Z,98912.95
2019-02-25T08:22:06.915Z,98911.77
2019-02-25T08:27:14.569Z,98907.16
2019-02-25T08:32:41.313Z,98903.86
2019-02-25T08:38:01.892Z,98915.61
2019-02-25T08:43:02.804Z,98910.77
2019-02-25T08:48:11.514Z,98914.91
2019-02-25T08:53:07.275Z,98916.31
2019-02-25T08:58:03.179Z,98924.13
2019-02-25T09:02:58.898Z,98923.19
2019-02-25T09:07:54.712Z,98923.09
2019-02-25T09:12:50.470Z,98926.62
2019-02-25T09:17:44.399Z,98927.07
2019-02-25T09:22:40.230Z,98925.30
2019-02-25T09:27:36.066Z,98923.27
2019-02-25T09:32:31.799Z,98912.83
2019-02-25T09:37:27.688Z,98914.72
2019-02-25T09:42:23.455Z,98915.00
2019-02-25T09:47:19.196Z,98912.42
2019-02-25T09:52:14.987Z,98911.97
2019-02-25T09:57:10.989Z,98910.60
2019-02-25T10:02:06.784Z,98912.62
2019-02-25T10:07:02.743Z,98918.73
2019-02-25T10:11:58.568Z,98915.19
2019-02-25T10:16:54.316Z,98914.83
2019-02-25T10:21:50.234Z,98918.56
2019-02-25T10:26:46.101Z,98914.30
2019-02-25T10:31:43.716Z,98918.91
2019-02-25T10:36:39.352Z,98918.98
2019-02-25T10:41:35.115Z,98916.88
2019-02-25T10:46:30.917Z,98916.19
2019-02-25T10:51:26.760Z,98913.42
2019-02-25T10:56:51.488Z,98908.14
2019-02-25T11:01:47.524Z,98902.53
2019-02-25T11:06:43.391Z,98902.48
2019-02-25T11:11:41.339Z,98889.42
2019-02-25T11:16:37.140Z,98886.88
2019-02-25T11:21:35.181Z,98882.20
2019-02-25T11:26:31.131Z,98871.86
2019-02-25T11:31:29.135Z,98871.03
2019-02-25T11:36:25.092Z,98863.69
2019-02-25T11:41:20.913Z,98857.66
2019-02-25T11:46:16.841Z,98855.61
2019-02-25T11:51:12.657Z,98853.81
2019-02-25T11:56:08.531Z,98843.20
2019-02-25T12:01:04.760Z,98834.66
2019-02-25T12:06:02.981Z,98831.31
2019-02-25T12:10:58.815Z,98827.17
2019-02-25T12:15:54.541Z,98826.60
2019-02-25T12:20:50.386Z,98815.01
2019-02-25T12:25:46.181Z,98815.78
2019-02-25T12:30:42.198Z,98808.25
2019-02-25T12:35:37.989Z,98802.76
2019-02-25T12:40:33.789Z,98797.16
2019-02-25T12:45:29.636Z,98791.93
2019-02-25T12:50:25.638Z,98785.34
2019-02-25T12:55:21.418Z,98770.46
2019-02-25T13:00:17.519Z,98769.84
2019-02-25T13:05:15.655Z,98759.45
2019-02-25T13:10:13.578Z,98761.88
2019-02-25T13:15:13.861Z,98750.73
2019-02-25T13:20:10.116Z,98744.94
2019-02-25T13:25:08.069Z,98747.70
2019-02-25T13:30:05.963Z,98745.52
2019-02-25T13:35:01.767Z,98751.56
2019-02-25T13:39:57.591Z,98743.94
2019-02-25T13:44:53.515Z,98733.04
2019-02-25T13:49:49.425Z,98716.27
2019-02-25T13:54:45.388Z,98706.67
2019-02-25T13:59:41.149Z,98702.84
2019-02-25T14:04:37.286Z,98701.53
2019-02-25T14:09:33.299Z,98705.83
2019-02-25T14:14:29.505Z,98700.17
2019-02-25T14:19:25.352Z,98701.88
2019-02-25T14:24:21.223Z,98694.85
2019-02-25T14:29:17.516Z,98691.77
2019-02-25T14:34:13.583Z,98687.28
2019-02-25T14:39:24.813Z,98683.73
2019-02-25T14:44:19.514Z,98683.18
2019-02-25T14:49:17.222Z,98687.83
2019-02-25T14:54:17.994Z,98685.02
2019-02-25T14:59:15.609Z,98685.43
2019-02-25T15:04:14.013Z,98685.43
2019-02-25T15:09:14.185Z,98683.27
2019-02-25T15:14:12.867Z,98691.07
2019-02-25T15:19:09.876Z,98683.81
2019-02-25T15:24:06.880Z,98693.00
2019-02-25T15:29:09.262Z,98693.99
2019-02-25T15:34:06.036Z,98688.69
2019-02-25T15:39:07.384Z,98684.59
2019-02-25T15:44:08.889Z,98677.91
2019-02-25T15:49:04.738Z,98680.52
2019-02-25T15:54:01.040Z,98674.55
2019-02-25T15:58:58.317Z,98663.72
2019-02-25T16:03:56.506Z,98664.27
2019-02-25T16:09:03.039Z,98650.45
2019-02-25T16:14:02.966Z,98652.84
2019-02-25T16:19:05.638Z,98646.11
2019-02-25T16:24:04.832Z,98643.00
2019-02-25T16:29:03.988Z,98637.69
2019-02-25T16:33:57.719Z,98652.31
2019-02-25T16:38:55.796Z,98651.59
2019-02-25T16:43:51.112Z,98654.36
2019-02-25T16:48:48.398Z,98656.36
2019-02-25T16:53:52.220Z,98667.32
2019-02-25T16:58:48.201Z,98663.21
2019-02-25T17:03:46.393Z,98671.48
2019-02-25T17:08:44.323Z,98668.50
2019-02-25T17:13:44.136Z,98675.17
2019-02-25T17:18:40.051Z,98678.48
2019-02-25T17:23:48.716Z,98684.50
2019-02-25T17:28:52.580Z,98689.66
2019-02-25T17:33:56.172Z,98693.13
2019-02-25T17:38:54.834Z,98689.60
2019-02-25T17:43:54.953Z,98691.02
2019-02-25T17:48:52.878Z,98701.00
2019-02-25T17:53:50.475Z,98702.86
2019-02-25T17:58:47.460Z,98700.94
2019-02-25T18:03:46.082Z,98701.53
2019-02-25T18:08:42.639Z,98710.97
2019-02-25T18:13:38.947Z,98720.87
2019-02-25T18:18:36.619Z,98723.81
2019-02-25T18:23:34.440Z,98720.86
2019-02-25T18:28:30.201Z,98728.13
2019-02-25T18:33:27.391Z,98730.50
2019-02-25T18:38:25.339Z,98724.64
2019-02-25T18:43:22.074Z,98725.61
2019-02-25T18:48:21.195Z,98729.22
2019-02-25T18:53:23.406Z,98727.14
2019-02-25T18:58:20.897Z,98727.14
2019-02-25T19:03:16.713Z,98724.85
2019-02-25T19:08:22.938Z,98723.73
2019-02-25T19:13:20.989Z,98729.27
2019-02-25T19:18:18.072Z,98740.88
2019-02-25T19:23:14.754Z,98743.84
2019-02-25T19:28:16.592Z,98755.14
2019-02-25T19:33:11.463Z,98761.05
2019-02-25T19:38:08.322Z,98761.95
2019-02-25T19:43:06.364Z,98758.14
2019-02-25T19:48:05.221Z,98759.39
2019-02-25T19:53:04.619Z,98755.94
2019-02-25T19:57:58.687Z,98757.39
2019-02-25T20:03:04.831Z,98761.68
2019-02-25T20:07:54.683Z,98769.39
2019-02-25T20:12:52.577Z,98770.01
2019-02-25T20:17:48.850Z,98768.59
2019-02-25T20:22:45.567Z,98762.25
2019-02-25T20:27:41.407Z,98760.22
2019-02-25T20:32:38.646Z,98765.87
2019-02-25T20:37:34.804Z,98770.23
2019-02-25T20:42:32.654Z,98772.62
2019-02-25T20:47:28.695Z,98772.03
2019-02-25T20:52:24.614Z,98781.23
2019-02-25T20:57:20.499Z,98768.17
2019-02-25T21:02:18.621Z,98782.34
2019-02-25T21:07:14.611Z,98773.69
2019-02-25T21:12:12.719Z,98780.95
2019-02-25T21:17:08.136Z,98775.14
2019-02-25T21:22:04.873Z,98774.39
2019-02-25T21:27:10.458Z,98781.95
2019-02-25T21:32:12.760Z,98780.00
2019-02-25T21:37:06.212Z,98791.74
2019-02-25T21:42:08.810Z,98793.04
2019-02-25T21:47:06.162Z,98796.78
